createdAt,value
2019-05-28T00:02:08.719Z,16.00
2019-05-28T00:04:38.027Z,15.90
2019-05-28T00:07:06.803Z,16.00
2019-05-28T00:09:35.586Z,15.90
2019-05-28T00:12:04.943Z,15.90
2019-05-28T00:14:33.612Z,15.90
2019-05-28T00:17:02.276Z,15.90
2019-05-28T00:19:31.207Z,15.90
2019-05-28T00:22:00.372Z,15.90
2019-05-28T00:24:29.704Z,15.90
2019-05-28T00:26:58.791Z,15.90
2019-05-28T00:29:28.505Z,15.80
2019-05-28T00:31:57.208Z,15.80
2019-05-28T00:34:25.888Z,15.90
2019-05-28T00:36:54.574Z,15.80
2019-05-28T00:39:23.371Z,15.80
2019-05-28T00:41:52.083Z,15.80
2019-05-28T00:44:20.824Z,15.70
2019-05-28T00:46:49.482Z,15.70
2019-05-28T00:49:18.170Z,15.70
2019-05-28T00:51:47.293Z,15.70
2019-05-28T00:54:16.277Z,15.60
2019-05-28T00:56:45.591Z,15.50
2019-05-28T00:59:14.822Z,15.50
2019-05-28T01:01:43.573Z,15.40
2019-05-28T01:04:12.231Z,15.30
2019-05-28T01:06:41.410Z,15.30
2019-05-28T01:09:10.187Z,15.20
2019-05-28T01:11:38.842Z,15.10
2019-05-28T01:14:07.539Z,15.10
2019-05-28T01:16:36.603Z,15.00
2019-05-28T01:19:05.570Z,14.90
2019-05-28T01:21:34.532Z,14.80
2019-05-28T01:24:03.627Z,14.80
2019-05-28T01:26:32.295Z,14.70
2019-05-28T01:29:00.956Z,14.70
2019-05-28T01:31:29.615Z,14.60
2019-05-28T01:33:58.280Z,14.60
2019-05-28T01:36:27.584Z,14.50
2019-05-28T01:38:56.624Z,14.40
2019-05-28T01:41:25.672Z,14.40
2019-05-28T01:43:54.424Z,14.30
2019-05-28T01:46:23.123Z,14.30
2019-05-28T01:48:51.779Z,14.20
2019-05-28T01:51:20.421Z,14.10
2019-05-28T01:53:49.069Z,14.00
2019-05-28T01:56:18.354Z,14.00
2019-05-28T01:58:47.014Z,13.90
2019-05-28T02:01:15.931Z,13.80
2019-05-28T02:03:44.620Z,13.80
2019-05-28T02:06:13.354Z,13.70
2019-05-28T02:08:42.037Z,13.60
2019-05-28T02:11:10.683Z,13.50
2019-05-28T02:13:39.345Z,13.40
2019-05-28T02:16:08.027Z,13.30
2019-05-28T02:18:36.680Z,13.30
2019-05-28T02:21:05.648Z,13.30
2019-05-28T02:23:35.501Z,13.20
2019-05-28T02:26:04.240Z,13.20
2019-05-28T02:28:33.225Z,13.20
2019-05-28T02:31:02.315Z,13.20
2019-05-28T02:33:31.247Z,13.20
2019-05-28T02:35:59.916Z,13.20
2019-05-28T02:38:28.568Z,13.10
2019-05-28T02:40:57.227Z,13.00
2019-05-28T02:43:25.958Z,13.00
2019-05-28T02:45:54.990Z,13.00
2019-05-28T02:48:23.627Z,12.90
2019-05-28T02:51:02.617Z,12.90
2019-05-28T02:53:32.169Z,12.90
2019-05-28T02:56:01.001Z,12.80
2019-05-28T02:58:32.794Z,12.80
2019-05-28T03:01:02.264Z,12.80
2019-05-28T03:03:32.670Z,12.80
2019-05-28T03:06:01.602Z,12.70
2019-05-28T03:08:32.044Z,12.70
2019-05-28T03:11:03.872Z,12.70
2019-05-28T03:13:32.338Z,12.70
2019-05-28T03:16:04.008Z,12.70
2019-05-28T03:18:37.317Z,12.70
2019-05-28T03:21:07.941Z,12.70
2019-05-28T03:23:38.803Z,12.70
2019-05-28T03:26:07.975Z,12.70
2019-05-28T03:28:37.139Z,12.80
2019-05-28T03:31:05.795Z,12.80
2019-05-28T03:33:34.449Z,12.80
2019-05-28T03:36:05.348Z,12.80
2019-05-28T03:38:35.287Z,12.80
2019-05-28T03:41:04.389Z,12.80
2019-05-28T03:43:33.095Z,12.90
2019-05-28T03:46:01.762Z,12.90
2019-05-28T03:48:30.735Z,13.00
2019-05-28T03:50:59.630Z,13.00
2019-05-28T03:53:28.270Z,13.10
2019-05-28T03:55:57.921Z,13.10
2019-05-28T03:58:45.847Z,13.10
2019-05-28T04:01:14.798Z,13.20
2019-05-28T04:03:43.448Z,13.20
2019-05-28T04:06:12.354Z,13.20
2019-05-28T04:08:41.102Z,13.30
2019-05-28T04:11:10.218Z,13.40
2019-05-28T04:13:39.209Z,13.40
2019-05-28T04:16:08.199Z,13.50
2019-05-28T04:18:36.993Z,13.50
2019-05-28T04:21:05.714Z,13.60
2019-05-28T04:23:34.365Z,13.60
2019-05-28T04:26:03.014Z,13.70
2019-05-28T04:28:31.686Z,13.70
2019-05-28T04:31:00.344Z,13.70
2019-05-28T04:33:28.978Z,13.80
2019-05-28T04:35:57.881Z,13.70
2019-05-28T04:38:26.549Z,13.70
2019-05-28T04:40:55.190Z,13.70
2019-05-28T04:43:23.839Z,13.80
2019-05-28T04:45:52.528Z,13.80
2019-05-28T04:48:21.223Z,13.80
2019-05-28T04:50:49.875Z,13.80
2019-05-28T04:53:18.840Z,13.80
2019-05-28T04:55:47.490Z,13.80
2019-05-28T04:58:16.590Z,13.90
2019-05-28T05:00:45.246Z,13.90
2019-05-28T05:03:14.277Z,14.10
2019-05-28T05:05:42.922Z,14.30
2019-05-28T05:08:11.574Z,14.30
2019-05-28T05:10:40.252Z,14.40
2019-05-28T05:13:09.258Z,14.50
2019-05-28T05:15:37.929Z,14.50
2019-05-28T05:18:06.923Z,14.60
2019-05-28T05:20:35.665Z,14.80
2019-05-28T05:23:04.443Z,15.40
2019-05-28T05:25:33.202Z,15.80
2019-05-28T05:28:01.855Z,16.20
2019-05-28T05:30:30.555Z,16.40
2019-05-28T05:33:18.512Z,16.90
2019-05-28T05:35:30.292Z,17.20
2019-05-28T05:37:58.999Z,17.70
2019-05-28T05:40:27.863Z,18.00
2019-05-28T05:42:56.935Z,18.60
2019-05-28T05:45:25.591Z,18.30
2019-05-28T05:47:54.695Z,18.20
2019-05-28T05:50:23.425Z,18.40
2019-05-28T05:52:52.607Z,18.80
2019-05-28T05:55:21.705Z,19.40
2019-05-28T05:57:50.367Z,19.60
2019-05-28T06:00:19.456Z,19.50
2019-05-28T06:02:48.378Z,19.70
2019-05-28T06:05:17.171Z,20.70
2019-05-28T06:07:45.869Z,21.20
2019-05-28T06:10:15.355Z,21.60
2019-05-28T06:12:44.024Z,22.10
2019-05-28T06:15:12.805Z,22.10
2019-05-28T06:17:41.455Z,22.00
2019-05-28T06:20:10.627Z,21.90
2019-05-28T06:22:39.276Z,21.60
2019-05-28T06:25:08.172Z,21.40
2019-05-28T06:27:37.106Z,21.20
2019-05-28T06:30:06.458Z,21.10
2019-05-28T06:32:36.510Z,21.00
2019-05-28T06:35:06.488Z,20.70
2019-05-28T06:37:35.522Z,21.00
2019-05-28T06:40:05.760Z,21.40
2019-05-28T06:42:39.089Z,21.60
2019-05-28T06:45:06.270Z,22.20
2019-05-28T06:47:34.987Z,22.60
2019-05-28T06:50:04.876Z,23.30
2019-05-28T06:52:33.900Z,23.30
2019-05-28T06:55:02.555Z,22.70
2019-05-28T06:57:31.211Z,22.10
2019-05-28T06:59:59.867Z,21.90
2019-05-28T07:02:29.044Z,21.50
2019-05-28T07:04:57.713Z,21.20
2019-05-28T07:07:26.363Z,21.00
2019-05-28T07:09:55.621Z,20.60
2019-05-28T07:12:24.287Z,20.30
2019-05-28T07:14:53.277Z,20.50
2019-05-28T07:17:21.957Z,20.50
2019-05-28T07:19:50.638Z,20.20
2019-05-28T07:22:19.348Z,20.20
2019-05-28T07:24:48.004Z,20.10
2019-05-28T07:27:16.691Z,20.30
2019-05-28T07:29:45.463Z,20.10
2019-05-28T07:32:14.103Z,20.10
2019-05-28T07:34:42.755Z,20.40
2019-05-28T07:37:11.407Z,20.10
2019-05-28T07:39:40.335Z,20.20
2019-05-28T07:42:09.234Z,20.60
2019-05-28T07:44:37.909Z,21.00
2019-05-28T07:47:06.546Z,21.90
2019-05-28T07:49:35.323Z,22.30
2019-05-28T07:52:03.957Z,22.60
2019-05-28T07:54:32.605Z,22.60
2019-05-28T07:57:01.244Z,22.40
2019-05-28T07:59:30.178Z,22.60
2019-05-28T08:01:58.819Z,23.20
2019-05-28T08:04:27.505Z,23.40
2019-05-28T08:06:56.542Z,23.50
2019-05-28T08:09:25.222Z,23.30
2019-05-28T08:11:54.224Z,23.30
2019-05-28T08:14:22.897Z,23.30
2019-05-28T08:16:52.926Z,23.30
2019-05-28T08:19:22.124Z,23.20
2019-05-28T08:21:50.782Z,23.30
2019-05-28T08:24:22.865Z,23.30
2019-05-28T08:26:49.815Z,23.30
2019-05-28T08:29:18.468Z,23.10
2019-05-28T08:31:47.392Z,22.80
2019-05-28T08:34:19.369Z,22.80
2019-05-28T08:37:01.763Z,23.20
2019-05-28T08:39:17.227Z,23.10
2019-05-28T08:41:46.051Z,23.20
2019-05-28T08:44:14.765Z,23.30
2019-05-28T08:46:43.428Z,23.00
2019-05-28T08:49:13.123Z,23.20
2019-05-28T08:51:41.797Z,23.50
2019-05-28T08:54:10.801Z,23.80
2019-05-28T08:56:39.485Z,24.30
2019-05-28T08:59:08.133Z,24.90
2019-05-28T09:01:36.783Z,24.40
2019-05-28T09:04:05.476Z,24.10
2019-05-28T09:06:34.506Z,23.60
2019-05-28T09:09:03.964Z,23.50
2019-05-28T09:11:32.656Z,23.80
2019-05-28T09:14:01.349Z,23.60
2019-05-28T09:16:30.311Z,23.30
2019-05-28T09:18:59.222Z,22.90
2019-05-28T09:21:27.858Z,23.00
2019-05-28T09:23:56.517Z,23.40
2019-05-28T09:26:25.159Z,23.30
2019-05-28T09:28:53.829Z,22.90
2019-05-28T09:31:22.588Z,22.60
2019-05-28T09:33:51.263Z,22.30
2019-05-28T09:36:19.959Z,22.20
2019-05-28T09:38:48.655Z,21.60
2019-05-28T09:41:17.322Z,21.30
2019-05-28T09:43:45.960Z,21.40
2019-05-28T09:46:14.679Z,21.10
2019-05-28T09:48:43.396Z,20.70
2019-05-28T09:51:12.130Z,20.70
2019-05-28T09:53:40.779Z,20.40
2019-05-28T09:56:09.841Z,20.70
2019-05-28T09:58:38.507Z,20.70
2019-05-28T10:01:07.609Z,20.70
2019-05-28T10:03:36.272Z,21.10
2019-05-28T10:06:16.215Z,21.60
2019-05-28T10:08:35.607Z,22.10
2019-05-28T10:11:04.424Z,22.00
2019-05-28T10:13:38.899Z,22.10
2019-05-28T10:16:03.598Z,21.90
2019-05-28T10:18:32.343Z,21.90
2019-05-28T10:21:16.854Z,21.90
2019-05-28T10:23:32.158Z,21.80
2019-05-28T10:26:00.921Z,22.00
2019-05-28T10:28:29.945Z,22.10
2019-05-28T10:30:58.630Z,22.30
2019-05-28T10:33:27.437Z,21.90
2019-05-28T10:35:56.524Z,22.10
2019-05-28T10:38:25.357Z,22.50
2019-05-28T10:40:54.098Z,22.70
2019-05-28T10:43:22.803Z,23.10
2019-05-28T10:45:51.644Z,23.40
2019-05-28T10:48:20.606Z,23.70
2019-05-28T10:50:49.736Z,24.00
2019-05-28T10:53:18.752Z,23.80
2019-05-28T10:55:47.534Z,23.90
2019-05-28T10:58:16.199Z,23.80
2019-05-28T11:00:44.899Z,24.00
2019-05-28T11:03:13.573Z,23.90
2019-05-28T11:05:42.439Z,24.20
2019-05-28T11:08:11.188Z,24.10
2019-05-28T11:10:39.851Z,24.90
2019-05-28T11:13:08.550Z,24.20
2019-05-28T11:15:37.744Z,24.30
2019-05-28T11:18:06.419Z,24.30
2019-05-28T11:20:35.619Z,24.40
2019-05-28T11:23:04.843Z,24.00
2019-05-28T11:25:33.612Z,23.90
2019-05-28T11:28:02.396Z,23.90
2019-05-28T11:30:31.107Z,24.10
2019-05-28T11:32:59.850Z,23.80
2019-05-28T11:35:28.758Z,23.00
2019-05-28T11:37:57.641Z,23.10
2019-05-28T11:40:29.991Z,23.20
2019-05-28T11:42:57.799Z,23.30
2019-05-28T11:45:26.876Z,23.40
2019-05-28T11:47:55.564Z,23.20
2019-05-28T11:50:24.331Z,23.10
2019-05-28T11:52:53.051Z,22.50
2019-05-28T11:55:22.288Z,22.10
2019-05-28T11:57:51.086Z,22.10
2019-05-28T12:00:21.959Z,21.90
2019-05-28T12:02:50.818Z,22.20
2019-05-28T12:05:20.067Z,22.00
2019-05-28T12:07:51.702Z,22.10
2019-05-28T12:10:20.737Z,21.80
2019-05-28T12:12:49.524Z,22.10
2019-05-28T12:15:19.256Z,22.30
2019-05-28T12:17:48.037Z,22.50
2019-05-28T12:20:19.046Z,22.40
2019-05-28T12:22:47.748Z,22.20
2019-05-28T12:25:17.215Z,22.10
2019-05-28T12:27:45.882Z,21.70
2019-05-28T12:30:18.337Z,21.90
2019-05-28T12:32:46.848Z,22.10
2019-05-28T12:35:27.367Z,22.20
2019-05-28T12:37:49.922Z,22.20
2019-05-28T12:40:17.813Z,22.60
2019-05-28T12:42:46.842Z,22.60
2019-05-28T12:45:16.484Z,22.40
2019-05-28T12:47:45.161Z,22.10
2019-05-28T12:50:20.019Z,22.00
2019-05-28T12:52:47.404Z,22.10
2019-05-28T12:55:17.139Z,21.90
2019-05-28T12:57:45.855Z,21.90
2019-05-28T13:00:15.652Z,22.00
2019-05-28T13:02:44.413Z,22.10
2019-05-28T13:05:14.335Z,22.30
2019-05-28T13:07:43.070Z,22.50
2019-05-28T13:10:12.411Z,22.40
2019-05-28T13:12:41.995Z,22.10
2019-05-28T13:15:12.221Z,22.00
2019-05-28T13:17:40.911Z,22.00
2019-05-28T13:20:11.333Z,22.20
2019-05-28T13:22:40.246Z,22.00
2019-05-28T13:25:10.345Z,22.00
2019-05-28T13:27:39.068Z,22.20
2019-05-28T13:30:08.408Z,22.30
2019-05-28T13:32:37.424Z,22.10
2019-05-28T13:35:07.608Z,22.30
2019-05-28T13:37:36.651Z,22.50
2019-05-28T13:40:07.892Z,22.30
2019-05-28T13:42:37.042Z,22.70
2019-05-28T13:45:07.306Z,22.40
2019-05-28T13:47:35.970Z,22.00
2019-05-28T13:50:05.610Z,21.90
2019-05-28T13:52:34.645Z,21.80
2019-05-28T13:55:03.418Z,22.10
2019-05-28T13:57:32.083Z,22.10
2019-05-28T14:00:00.915Z,22.00
2019-05-28T14:02:29.581Z,21.80
2019-05-28T14:04:58.569Z,21.60
2019-05-28T14:07:27.539Z,21.60
2019-05-28T14:09:56.472Z,21.50
2019-05-28T14:12:25.466Z,21.60
2019-05-28T14:14:54.472Z,21.50
2019-05-28T14:17:24.731Z,21.30
2019-05-28T14:19:53.504Z,21.20
2019-05-28T14:22:33.542Z,21.30
2019-05-28T14:24:53.193Z,21.20
2019-05-28T14:27:21.877Z,21.20
2019-05-28T14:29:50.919Z,21.30
2019-05-28T14:32:19.692Z,21.50
2019-05-28T14:34:52.291Z,21.40
2019-05-28T14:37:19.515Z,21.80
2019-05-28T14:39:48.223Z,22.30
2019-05-28T14:42:17.970Z,22.40
2019-05-28T14:44:48.814Z,22.70
2019-05-28T14:47:17.490Z,22.80
2019-05-28T14:49:46.245Z,23.00
2019-05-28T14:52:14.911Z,22.90
2019-05-28T14:54:43.795Z,22.70
2019-05-28T14:57:12.694Z,22.40
2019-05-28T14:59:41.377Z,22.40
2019-05-28T15:02:10.065Z,21.80
2019-05-28T15:04:38.822Z,21.80
2019-05-28T15:07:07.528Z,21.80
2019-05-28T15:09:36.197Z,21.70
2019-05-28T15:12:05.103Z,21.90
2019-05-28T15:14:33.805Z,21.90
2019-05-28T15:17:02.454Z,21.70
2019-05-28T15:19:31.391Z,21.40
2019-05-28T15:22:00.246Z,21.20
2019-05-28T15:24:29.107Z,21.10
2019-05-28T15:26:57.834Z,20.90
2019-05-28T15:29:26.772Z,21.10
2019-05-28T15:31:55.754Z,21.10
2019-05-28T15:34:24.432Z,21.20
2019-05-28T15:36:53.118Z,21.10
2019-05-28T15:39:38.526Z,20.90
2019-05-28T15:41:52.575Z,20.80
2019-05-28T15:44:21.226Z,20.70
2019-05-28T15:46:49.868Z,20.60
2019-05-28T15:49:19.202Z,20.40
2019-05-28T15:51:47.997Z,20.50
2019-05-28T15:54:16.992Z,20.50
2019-05-28T15:56:45.678Z,20.40
2019-05-28T15:59:14.372Z,20.40
2019-05-28T16:01:44.512Z,20.40
2019-05-28T16:04:13.198Z,20.20
2019-05-28T16:06:41.847Z,20.20
2019-05-28T16:09:12.900Z,20.30
2019-05-28T16:11:40.885Z,20.40
2019-05-28T16:14:09.519Z,20.30
2019-05-28T16:16:38.203Z,20.10
2019-05-28T16:19:06.850Z,20.10
2019-05-28T16:21:35.540Z,20.00
2019-05-28T16:24:04.307Z,20.10
2019-05-28T16:26:33.196Z,19.90
2019-05-28T16:29:02.164Z,19.80
2019-05-28T16:31:30.851Z,19.80
2019-05-28T16:33:59.531Z,19.80
2019-05-28T16:36:28.197Z,19.70
2019-05-28T16:38:57.240Z,19.30
2019-05-28T16:41:26.259Z,19.30
2019-05-28T16:43:55.547Z,19.20
2019-05-28T16:46:24.269Z,19.20
2019-05-28T16:48:52.972Z,19.20
2019-05-28T16:51:21.622Z,19.20
2019-05-28T16:53:50.405Z,19.20
2019-05-28T16:56:19.327Z,19.30
2019-05-28T16:58:48.004Z,19.30
2019-05-28T17:01:22.344Z,19.40
2019-05-28T17:03:47.425Z,19.30
2019-05-28T17:06:16.434Z,19.30
2019-05-28T17:08:45.109Z,19.50
2019-05-28T17:11:14.030Z,19.30
2019-05-28T17:14:30.760Z,19.30
2019-05-28T17:16:38.950Z,19.20
2019-05-28T17:19:07.684Z,19.20
2019-05-28T17:21:36.420Z,19.10
2019-05-28T17:24:05.197Z,18.90
2019-05-28T17:26:33.843Z,18.60
2019-05-28T17:29:02.768Z,18.50
2019-05-28T17:31:31.559Z,18.30
2019-05-28T17:34:00.918Z,18.20
2019-05-28T17:36:29.588Z,18.20
2019-05-28T17:38:58.552Z,18.20
2019-05-28T17:41:27.500Z,18.20
2019-05-28T17:43:56.152Z,18.10
2019-05-28T17:46:24.879Z,18.00
2019-05-28T17:48:53.895Z,17.90
2019-05-28T17:51:22.535Z,17.90
2019-05-28T17:53:51.188Z,17.90
2019-05-28T17:56:19.896Z,17.80
2019-05-28T17:58:48.956Z,17.60
2019-05-28T18:01:17.659Z,17.50
2019-05-28T18:03:46.318Z,17.50
2019-05-28T18:06:14.977Z,17.40
2019-05-28T18:08:43.905Z,17.30
2019-05-28T18:11:12.543Z,17.10
2019-05-28T18:13:41.529Z,17.00
2019-05-28T18:16:10.264Z,16.80
2019-05-28T18:18:38.911Z,16.90
2019-05-28T18:21:07.558Z,16.70
2019-05-28T18:23:36.208Z,16.70
2019-05-28T18:26:05.004Z,16.60
2019-05-28T18:28:33.661Z,16.70
2019-05-28T18:31:05.059Z,16.70
2019-05-28T18:33:34.013Z,16.60
2019-05-28T18:36:02.750Z,16.60
2019-05-28T18:38:31.456Z,16.60
2019-05-28T18:41:00.172Z,16.50
2019-05-28T18:43:29.284Z,16.30
2019-05-28T18:45:57.962Z,16.10
2019-05-28T18:48:26.623Z,15.90
2019-05-28T18:50:55.288Z,15.80
2019-05-28T18:53:24.007Z,15.70
2019-05-28T18:55:52.955Z,15.60
2019-05-28T18:58:21.799Z,15.60
2019-05-28T19:00:51.500Z,15.50
2019-05-28T19:03:20.442Z,15.40
2019-05-28T19:05:49.608Z,15.30
2019-05-28T19:08:18.335Z,15.10
2019-05-28T19:10:47.585Z,15.00
2019-05-28T19:13:16.596Z,14.90
2019-05-28T19:15:45.356Z,14.80
2019-05-28T19:18:14.007Z,14.70
2019-05-28T19:20:43.070Z,14.60
2019-05-28T19:23:11.739Z,14.50
2019-05-28T19:25:40.477Z,14.50
2019-05-28T19:28:09.196Z,14.30
2019-05-28T19:30:37.836Z,14.30
2019-05-28T19:33:06.601Z,14.20
2019-05-28T19:35:35.585Z,14.10
2019-05-28T19:38:05.830Z,14.00
2019-05-28T19:40:36.845Z,14.00
2019-05-28T19:43:05.697Z,13.90
2019-05-28T19:45:35.191Z,13.90
2019-05-28T19:48:04.365Z,13.70
2019-05-28T19:50:33.140Z,13.70
2019-05-28T19:53:01.778Z,13.60
2019-05-28T19:55:30.807Z,13.50
2019-05-28T19:57:59.459Z,13.50
2019-05-28T20:00:28.216Z,13.40
2019-05-28T20:02:57.013Z,13.40
2019-05-28T20:05:25.734Z,13.30
2019-05-28T20:07:54.403Z,13.20
2019-05-28T20:10:23.432Z,13.20
2019-05-28T20:12:52.435Z,13.10
2019-05-28T20:15:22.868Z,13.10
2019-05-28T20:17:52.503Z,13.00
2019-05-28T20:20:21.580Z,13.00
2019-05-28T20:22:50.247Z,13.00
2019-05-28T20:25:19.089Z,13.10
2019-05-28T20:27:47.753Z,13.10
2019-05-28T20:30:17.369Z,13.00
2019-05-28T20:32:46.027Z,13.00
2019-05-28T20:35:14.865Z,13.00
2019-05-28T20:37:43.578Z,12.90
2019-05-28T20:40:12.832Z,13.00
2019-05-28T20:42:41.796Z,12.90
2019-05-28T20:45:12.114Z,12.80
2019-05-28T20:47:41.087Z,12.80
2019-05-28T20:50:11.739Z,12.70
2019-05-28T20:52:40.602Z,12.70
2019-05-28T20:55:09.598Z,12.60
2019-05-28T20:57:38.520Z,12.60
2019-05-28T21:00:08.554Z,12.50
2019-05-28T21:02:37.252Z,12.50
2019-05-28T21:05:06.532Z,12.40
2019-05-28T21:07:35.663Z,12.40
2019-05-28T21:10:05.005Z,12.30
2019-05-28T21:12:43.185Z,12.20
2019-05-28T21:15:04.557Z,12.20
2019-05-28T21:17:33.176Z,12.20
2019-05-28T21:20:01.896Z,12.10
2019-05-28T21:22:30.526Z,12.20
2019-05-28T21:25:00.611Z,12.10
2019-05-28T21:27:29.328Z,12.10
2019-05-28T21:29:58.329Z,12.00
2019-05-28T21:32:27.033Z,12.00
2019-05-28T21:34:58.156Z,11.90
2019-05-28T21:37:26.163Z,11.90
2019-05-28T21:39:55.449Z,11.80
2019-05-28T21:42:29.487Z,11.70
2019-05-28T21:44:58.163Z,11.70
2019-05-28T21:47:27.139Z,11.70
2019-05-28T21:49:58.986Z,11.70
2019-05-28T21:55:40.908Z,11.50
2019-05-28T21:58:09.779Z,11.50
2019-05-28T22:00:47.100Z,11.40
2019-05-28T22:03:16.313Z,11.40
2019-05-28T22:05:45.255Z,11.30
2019-05-28T22:08:14.446Z,11.20
2019-05-28T22:10:43.451Z,11.30
2019-05-28T22:13:20.487Z,11.20
2019-05-28T22:15:42.460Z,11.20
2019-05-28T22:18:11.364Z,11.20
2019-05-28T22:20:40.242Z,11.10
2019-05-28T22:23:08.956Z,11.10
2019-05-28T22:25:37.694Z,11.00
2019-05-28T22:28:12.362Z,10.90
2019-05-28T22:30:41.024Z,10.90
2019-05-28T22:33:09.671Z,10.80
2019-05-28T22:35:38.722Z,10.80
2019-05-28T22:38:13.188Z,10.80
2019-05-28T22:40:41.864Z,10.70
2019-05-28T22:43:11.122Z,10.70
2019-05-28T22:45:43.068Z,10.60
2019-05-28T22:48:15.732Z,10.60
2019-05-28T22:50:40.678Z,10.60
2019-05-28T22:53:09.739Z,10.60
2019-05-28T22:55:38.416Z,10.50
2019-05-28T22:58:07.066Z,10.50
2019-05-28T23:00:36.128Z,10.50
2019-05-28T23:03:05.077Z,10.40
2019-05-28T23:05:33.850Z,10.30
2019-05-28T23:08:03.676Z,10.30
2019-05-28T23:10:32.623Z,10.30
2019-05-28T23:13:02.926Z,10.20
2019-05-28T23:15:31.770Z,10.20
2019-05-28T23:18:00.752Z,10.30
2019-05-28T23:20:29.419Z,10.30
2019-05-28T23:22:58.411Z,10.20
2019-05-28T23:25:27.110Z,10.20
2019-05-28T23:27:55.780Z,10.10
2019-05-28T23:30:25.552Z,10.10
2019-05-28T23:32:55.326Z,10.00
2019-05-28T23:35:24.205Z,10.00
2019-05-28T23:37:53.191Z,10.00
2019-05-28T23:40:22.065Z,9.90
2019-05-28T23:42:50.703Z,9.90
2019-05-28T23:45:19.521Z,9.80
2019-05-28T23:47:48.171Z,9.80
2019-05-28T23:50:18.298Z,9.80
2019-05-28T23:52:47.586Z,9.80
2019-05-28T23:55:16.408Z,9.70
2019-05-28T23:59:38.607Z,9.60
